Clubb, Missouri
Current Conditions -  °F | °C
As of 11:53 AM on Sunday 21 Dec 2014 (Local Time) from KPOF Reporting Station
Overcast Overcast  
Wind Chill: 36°   Ceiling: 4600
Heat Index: 41°   Visibility: 9mi
Dew Point: 30°   Wind: 7mph
Humidity: 65%   Direction: 80°E
Pressure: 30.15"   Gusts: NA
Location:  37.21°N, 90.35°W
Report Text: KPOF 211753Z AUTO 08006KT 9SM OVC046 05/M01 A3015 RMK AO2 SLP215 T00501011 10050 20017 58023
Loading
Personal Weather Stations






























Interactive Weather Map New forecast layout! Learn more

10-Day Weather Forecast

Advertisements
Track Severe Weather on mobile